Time;durP1;ratioP1;P1;durP2;ratioP2;P2;SDS_P1;SDS_P2;PMS_P1;PMS_P2;Temp;Humidity;BMP_temperature;BMP_pressure;BME280_temperature;BME280_humidity;BME280_pressure;Samples;Min_cycle;Max_cycle;Signal;HPM_P1;HPM_P2
2023/03/12 00:00:56;;;;;;;7.43;4.83;;;2.20;76.40;;;;;;6068069;23;20468;-75
2023/03/12 00:03:24;;;;;;;6.47;4.20;;;2.20;75.50;;;;;;6043543;23;20382;-75
2023/03/12 00:05:51;;;;;;;6.00;4.03;;;2.30;75.00;;;;;;6040748;23;20857;-74
2023/03/12 00:08:17;;;;;;;11.23;4.20;;;2.30;75.10;;;;;;6042694;23;20393;-75
2023/03/12 00:10:48;;;;;;;5.23;3.93;;;2.30;75.00;;;;;;6066332;23;20396;-76
2023/03/12 00:13:16;;;;;;;7.10;4.20;;;2.30;75.00;;;;;;6091050;23;20362;-76
2023/03/12 00:15:41;;;;;;;8.00;3.73;;;2.30;75.10;;;;;;6065984;23;20373;-75
2023/03/12 00:18:08;;;;;;;8.27;4.27;;;2.20;75.40;;;;;;6090914;23;20134;-74
2023/03/12 00:20:34;;;;;;;7.93;3.60;;;2.20;75.40;;;;;;6092778;23;20188;-74
2023/03/12 00:22:59;;;;;;;8.97;5.37;;;2.30;75.00;;;;;;6089217;23;20361;-74
2023/03/12 00:25:25;;;;;;;5.97;3.73;;;2.30;74.80;;;;;;6065986;23;20422;-74
2023/03/12 00:27:51;;;;;;;8.43;4.50;;;2.30;74.10;;;;;;6062979;23;20196;-74
2023/03/12 00:30:18;;;;;;;5.90;3.40;;;2.30;74.30;;;;;;6064217;23;20180;-75
2023/03/12 00:32:44;;;;;;;5.90;4.03;;;2.40;74.80;;;;;;6040550;23;20174;-74
2023/03/12 00:35:09;;;;;;;7.77;4.30;;;2.30;75.10;;;;;;6040662;23;20354;-76
2023/03/12 00:37:38;;;;;;;6.07;4.07;;;2.30;75.70;;;;;;6041716;23;20141;-74
2023/03/12 00:40:07;;;;;;;7.70;3.80;;;2.30;76.10;;;;;;6065430;23;20460;-75
2023/03/12 00:42:33;;;;;;;6.70;4.03;;;2.30;76.30;;;;;;6067966;23;20417;-76
2023/03/12 00:45:05;;;;;;;9.73;4.10;;;2.30;75.50;;;;;;6047847;23;20394;-75
2023/03/12 00:47:31;;;;;;;9.00;4.27;;;2.20;75.70;;;;;;6067688;23;20153;-75
2023/03/12 00:50:02;;;;;;;5.00;3.40;;;2.30;76.30;;;;;;6045252;23;20389;-75
2023/03/12 00:52:39;;;;;;;8.73;4.57;;;2.30;77.30;;;;;;6069605;23;20158;-76
2023/03/12 00:55:07;;;;;;;8.23;4.37;;;2.20;77.60;;;;;;6068830;23;20441;-74
2023/03/12 00:57:33;;;;;;;6.50;3.30;;;2.20;77.70;;;;;;6042972;23;20405;-76
2023/03/12 01:00:00;;;;;;;7.47;4.13;;;2.30;78.50;;;;;;6089529;23;20440;-75
2023/03/12 01:02:28;;;;;;;7.07;5.03;;;2.20;78.90;;;;;;6066241;23;20444;-76
2023/03/12 01:04:55;;;;;;;7.43;4.93;;;2.20;79.20;;;;;;6065779;23;20201;-75
2023/03/12 01:07:21;;;;;;;6.07;4.37;;;2.20;78.50;;;;;;6066193;23;20370;-75
2023/03/12 01:09:47;;;;;;;5.63;3.80;;;2.20;79.20;;;;;;6041287;23;20926;-75
2023/03/12 01:12:13;;;;;;;7.90;5.00;;;2.20;79.70;;;;;;6091892;23;20365;-75
2023/03/12 01:14:39;;;;;;;10.13;5.20;;;2.20;80.00;;;;;;6039031;23;20157;-74
2023/03/12 01:17:08;;;;;;;7.70;4.47;;;2.20;80.40;;;;;;6062330;23;20362;-76
2023/03/12 01:19:33;;;;;;;9.10;6.50;;;2.20;80.50;;;;;;6038255;23;20189;-75
2023/03/12 01:21:59;;;;;;;7.13;4.20;;;2.20;80.90;;;;;;6041532;23;20377;-75
2023/03/12 01:24:25;;;;;;;6.90;3.77;;;2.20;81.30;;;;;;6039109;23;20213;-74
2023/03/12 01:26:50;;;;;;;7.70;4.63;;;2.20;81.50;;;;;;6087393;23;20133;-73
2023/03/12 01:29:16;;;;;;;10.40;5.00;;;2.20;81.40;;;;;;6065063;23;20141;-75
2023/03/12 01:31:41;;;;;;;8.87;4.90;;;2.20;81.60;;;;;;6065094;23;20133;-76
2023/03/12 01:34:10;;;;;;;4.60;3.20;;;2.20;81.60;;;;;;6062322;23;20134;-74
2023/03/12 01:36:36;;;;;;;5.80;4.23;;;2.20;81.50;;;;;;6036489;23;20153;-74
2023/03/12 01:39:03;;;;;;;5.80;4.43;;;2.30;82.00;;;;;;6062542;23;20377;-74
2023/03/12 01:41:31;;;;;;;8.20;4.30;;;2.20;81.80;;;;;;6036555;23;20413;-72
2023/03/12 01:44:02;;;;;;;8.10;4.50;;;2.20;82.00;;;;;;6086727;23;20349;-75
2023/03/12 01:46:29;;;;;;;5.90;3.83;;;2.10;82.20;;;;;;6042411;23;20377;-75
2023/03/12 01:49:19;;;;;;;4.77;3.87;;;2.20;82.20;;;;;;6067753;23;20346;-75
2023/03/12 01:52:08;;;;;;;6.60;4.23;;;2.10;82.40;;;;;;6057224;23;20853;-76
2023/03/12 01:55:01;;;;;;;5.63;3.57;;;2.10;82.80;;;;;;5947523;24;20398;-74
2023/03/12 01:57:36;;;;;;;8.57;4.53;;;2.00;83.70;;;;;;5947482;24;20342;-76
2023/03/12 02:00:13;;;;;;;6.77;2.90;;;2.00;84.70;;;;;;5968194;24;20516;-73
2023/03/12 02:02:43;;;;;;;5.83;3.13;;;2.10;85.00;;;;;;5944308;24;20389;-74
2023/03/12 02:05:18;;;;;;;4.20;3.30;;;2.00;84.70;;;;;;5922565;24;20382;-75
2023/03/12 02:07:45;;;;;;;5.73;3.47;;;2.00;84.70;;;;;;5967176;24;20397;-74
2023/03/12 02:10:12;;;;;;;8.13;4.67;;;2.10;84.60;;;;;;5969150;24;20544;-76
2023/03/12 02:12:38;;;;;;;5.63;3.53;;;2.20;84.70;;;;;;5967691;24;20659;-73
2023/03/12 02:15:06;;;;;;;8.13;4.30;;;2.20;84.00;;;;;;5940418;24;20386;-71
2023/03/12 02:17:32;;;;;;;6.57;3.80;;;2.20;84.30;;;;;;5965936;24;20167;-74
2023/03/12 02:20:30;;;;;;;7.27;3.60;;;2.20;84.90;;;;;;5944084;24;20470;-74
2023/03/12 02:23:05;;;;;;;8.83;3.87;;;2.20;85.50;;;;;;5941485;24;20469;-72
2023/03/12 02:25:45;;;;;;;7.20;4.30;;;2.20;85.40;;;;;;5939844;24;20386;-73
2023/03/12 02:28:14;;;;;;;8.93;4.77;;;2.30;86.10;;;;;;5920780;24;20393;-73
2023/03/12 02:30:50;;;;;;;5.60;3.23;;;2.20;86.00;;;;;;5955810;23;20418;-76
2023/03/12 02:33:16;;;;;;;6.27;3.50;;;2.30;86.40;;;;;;6033708;23;20469;-73
2023/03/12 02:35:46;;;;;;;7.20;3.97;;;2.20;85.70;;;;;;6034914;23;20364;-75
2023/03/12 02:38:53;;;;;;;6.00;4.10;;;2.30;85.10;;;;;;6007800;23;20363;-76
2023/03/12 02:41:25;;;;;;;6.90;4.60;;;2.30;85.30;;;;;;5948060;23;20440;-73
2023/03/12 02:44:00;;;;;;;12.67;4.77;;;2.30;85.10;;;;;;5948803;24;20376;-75
2023/03/12 02:46:29;;;;;;;7.43;4.40;;;2.30;85.20;;;;;;5968100;24;20384;-74
2023/03/12 02:48:56;;;;;;;9.03;3.60;;;2.30;85.00;;;;;;5972019;24;20385;-73
2023/03/12 02:51:22;;;;;;;6.70;3.50;;;2.40;84.30;;;;;;5946326;24;20764;-72
2023/03/12 02:53:53;;;;;;;5.23;3.50;;;2.40;84.50;;;;;;5948784;24;20369;-74
2023/03/12 02:56:24;;;;;;;4.80;3.00;;;2.40;85.20;;;;;;5967281;24;20386;-71
2023/03/12 02:58:51;;;;;;;8.17;3.10;;;2.30;85.40;;;;;;5967828;24;20613;-74
2023/03/12 03:01:17;;;;;;;18.83;4.10;;;2.30;85.30;;;;;;5966591;24;20409;-73
2023/03/12 03:03:43;;;;;;;5.73;3.90;;;2.40;84.90;;;;;;5967388;24;20144;-74
2023/03/12 03:06:09;;;;;;;5.97;3.23;;;2.30;84.40;;;;;;5967426;24;20471;-73
2023/03/12 03:08:34;;;;;;;7.90;3.70;;;2.40;84.00;;;;;;5965671;24;20750;-73
2023/03/12 03:11:01;;;;;;;4.57;2.73;;;2.40;83.80;;;;;;5944151;24;20175;-74
2023/03/12 03:13:28;;;;;;;4.83;3.63;;;2.40;84.00;;;;;;5944608;24;20140;-73
2023/03/12 03:15:57;;;;;;;7.67;3.77;;;2.40;83.90;;;;;;5944372;24;20453;-73
2023/03/12 03:18:23;;;;;;;4.33;2.63;;;2.40;83.50;;;;;;5951143;24;20398;-74
2023/03/12 03:20:58;;;;;;;8.53;3.20;;;2.40;84.00;;;;;;5975847;24;20883;-73
2023/03/12 03:23:24;;;;;;;5.50;3.53;;;2.40;83.90;;;;;;5939214;24;20410;-75
2023/03/12 03:25:51;;;;;;;6.73;3.50;;;2.50;83.60;;;;;;5893300;24;20478;-73
2023/03/12 03:28:19;;;;;;;6.07;3.60;;;2.50;83.50;;;;;;5963081;24;20379;-74
2023/03/12 03:30:44;;;;;;;8.13;3.90;;;2.50;83.10;;;;;;5918088;24;20778;-73
2023/03/12 03:33:10;;;;;;;9.33;2.93;;;2.40;83.60;;;;;;5963008;24;20394;-73
2023/03/12 03:35:36;;;;;;;6.43;3.43;;;2.40;83.90;;;;;;5960082;24;20562;-73
2023/03/12 03:38:03;;;;;;;6.43;3.53;;;2.20;84.80;;;;;;5965791;24;20157;-74
2023/03/12 03:40:29;;;;;;;9.33;2.67;;;2.30;85.00;;;;;;5941594;24;20189;-74
2023/03/12 03:42:54;;;;;;;4.27;2.87;;;2.30;85.00;;;;;;5967123;24;20414;-72
2023/03/12 03:45:21;;;;;;;14.87;3.33;;;2.30;84.60;;;;;;5947250;24;20399;-74
2023/03/12 03:47:46;;;;;;;5.10;2.90;;;2.30;85.00;;;;;;5947388;24;20153;-74
2023/03/12 03:50:12;;;;;;;12.63;4.40;;;2.40;85.30;;;;;;5979432;24;20440;-74
2023/03/12 03:52:38;;;;;;;4.73;2.97;;;2.40;84.40;;;;;;5972106;24;20191;-72
2023/03/12 03:55:05;;;;;;;7.87;3.37;;;2.40;83.80;;;;;;5995320;23;20399;-71
2023/03/12 03:57:32;;;;;;;8.43;4.00;;;2.40;83.40;;;;;;5994965;24;20428;-73
2023/03/12 03:59:59;;;;;;;4.63;3.43;;;2.40;82.90;;;;;;6015994;23;20427;-72
2023/03/12 04:02:26;;;;;;;6.00;2.80;;;2.50;82.20;;;;;;5996309;24;20618;-74
2023/03/12 04:04:55;;;;;;;6.50;3.33;;;2.50;82.10;;;;;;5995894;24;20353;-73
2023/03/12 04:07:21;;;;;;;5.50;2.87;;;2.50;82.10;;;;;;6019893;23;20380;-72
2023/03/12 04:09:47;;;;;;;4.00;3.20;;;2.60;81.50;;;;;;5975891;24;20400;-74
2023/03/12 04:12:13;;;;;;;5.37;2.20;;;2.60;81.70;;;;;;6021920;23;20387;-73
2023/03/12 04:14:40;;;;;;;5.13;2.63;;;2.60;80.40;;;;;;6022021;23;20533;-72
2023/03/12 04:17:07;;;;;;;7.47;3.30;;;2.50;80.90;;;;;;6022430;23;20391;-72
2023/03/12 04:19:33;;;;;;;3.70;2.57;;;2.60;80.60;;;;;;6018741;23;20427;-73
2023/03/12 04:22:00;;;;;;;4.27;2.53;;;2.60;81.10;;;;;;6017360;23;20444;-72
2023/03/12 04:24:26;;;;;;;3.90;2.23;;;2.60;81.60;;;;;;6017024;23;20376;-73
2023/03/12 04:26:52;;;;;;;3.80;2.20;;;2.60;81.10;;;;;;5992744;24;20623;-72
2023/03/12 04:29:18;;;;;;;6.43;2.73;;;2.60;81.60;;;;;;6017776;23;20205;-73
2023/03/12 04:31:44;;;;;;;7.83;2.97;;;2.60;81.70;;;;;;5994962;24;20199;-73
2023/03/12 04:34:11;;;;;;;3.90;1.93;;;2.60;81.50;;;;;;5973522;24;20384;-73
2023/03/12 04:36:37;;;;;;;4.77;2.40;;;2.70;81.60;;;;;;5995939;24;20401;-72
2023/03/12 04:39:06;;;;;;;4.13;2.13;;;2.70;81.30;;;;;;5995231;23;20468;-72
2023/03/12 04:41:34;;;;;;;5.43;2.13;;;2.60;81.50;;;;;;6018757;23;20698;-74
2023/03/12 04:44:06;;;;;;;5.03;2.20;;;2.60;81.50;;;;;;5999249;24;20372;-74
2023/03/12 04:46:33;;;;;;;4.50;3.27;;;2.60;82.10;;;;;;6022544;23;20380;-72
2023/03/12 04:49:01;;;;;;;3.93;2.10;;;2.50;82.80;;;;;;6019715;23;20412;-74
2023/03/12 04:51:28;;;;;;;8.70;2.50;;;2.70;84.00;;;;;;5995412;24;20423;-72
2023/03/12 04:53:54;;;;;;;4.30;2.17;;;2.70;86.00;;;;;;5963131;24;20396;-72
2023/03/12 04:56:20;;;;;;;6.97;2.93;;;2.70;87.20;;;;;;5986997;24;20396;-72
2023/03/12 04:58:46;;;;;;;5.33;2.30;;;2.60;90.10;;;;;;5984693;24;20399;-73
2023/03/12 05:01:26;;;;;;;5.60;2.97;;;2.60;92.20;;;;;;5986888;23;20712;-71
2023/03/12 05:03:52;;;;;;;5.60;2.83;;;2.50;94.20;;;;;;5989195;24;20154;-74
2023/03/12 05:06:19;;;;;;;3.80;2.37;;;2.50;95.30;;;;;;5991960;24;20416;-73
2023/03/12 05:08:45;;;;;;;4.77;3.03;;;2.40;96.60;;;;;;5992149;24;20447;-71
2023/03/12 05:11:11;;;;;;;4.30;2.30;;;2.30;98.40;;;;;;5967265;24;20406;-72
2023/03/12 05:13:37;;;;;;;3.87;2.60;;;2.30;98.70;;;;;;5992310;24;20364;-73
2023/03/12 05:16:03;;;;;;;11.67;3.33;;;2.30;99.90;;;;;;5990269;24;20438;-71
2023/03/12 05:18:30;;;;;;;4.23;2.37;;;2.20;99.90;;;;;;5991705;24;20178;-72
2023/03/12 05:21:12;;;;;;;14.27;3.20;;;2.20;99.90;;;;;;5991339;23;20456;-73
2023/03/12 05:23:41;;;;;;;3.70;2.33;;;2.20;99.90;;;;;;5965487;24;20162;-72
2023/03/12 05:26:16;;;;;;;9.63;3.17;;;2.10;99.90;;;;;;5991133;24;20364;-73
2023/03/12 05:28:41;;;;;;;4.30;2.53;;;2.10;99.90;;;;;;5990139;24;20380;-71
2023/03/12 05:31:09;;;;;;;5.20;2.70;;;2.20;99.90;;;;;;5990665;23;20475;-72
2023/03/12 05:33:36;;;;;;;5.20;3.07;;;2.10;99.90;;;;;;5991007;24;20151;-72
2023/03/12 05:36:02;;;;;;;3.10;2.30;;;2.10;99.90;;;;;;5991845;24;20380;-72
2023/03/12 05:38:28;;;;;;;5.80;2.40;;;2.00;99.90;;;;;;5993356;24;20803;-72
2023/03/12 05:40:56;;;;;;;5.67;2.80;;;2.00;99.90;;;;;;5990659;23;20239;-73
2023/03/12 05:43:22;;;;;;;5.63;2.80;;;2.00;99.90;;;;;;5990720;24;20525;-73
2023/03/12 05:45:48;;;;;;;3.50;2.87;;;2.00;99.90;;;;;;5991417;24;20428;-71
2023/03/12 05:48:14;;;;;;;7.37;3.07;;;2.00;99.90;;;;;;5991934;24;20619;-71
2023/03/12 05:50:40;;;;;;;7.63;2.70;;;1.90;99.90;;;;;;6008184;23;20419;-71
2023/03/12 05:53:06;;;;;;;4.20;2.80;;;1.90;99.90;;;;;;5994051;23;20546;-72
2023/03/12 05:55:36;;;;;;;7.03;3.23;;;1.90;99.90;;;;;;5993569;23;20383;-72
2023/03/12 05:58:04;;;;;;;5.03;2.90;;;1.80;99.90;;;;;;5994904;23;20652;-72
2023/03/12 06:00:31;;;;;;;7.33;3.13;;;1.80;99.90;;;;;;6019288;23;20752;-71
2023/03/12 06:02:58;;;;;;;4.50;3.40;;;1.90;99.90;;;;;;5995236;23;20385;-72
2023/03/12 06:05:24;;;;;;;8.87;3.50;;;1.90;99.90;;;;;;5993729;23;20375;-73
2023/03/12 06:07:50;;;;;;;4.77;3.20;;;1.90;99.90;;;;;;5995479;23;20463;-73
2023/03/12 06:10:16;;;;;;;8.80;3.33;;;1.90;99.90;;;;;;5994295;23;20174;-71
2023/03/12 06:12:43;;;;;;;5.77;2.70;;;2.00;99.90;;;;;;5995820;23;20162;-71
2023/03/12 06:15:09;;;;;;;6.87;3.23;;;1.90;99.90;;;;;;6018777;23;20355;-71
2023/03/12 06:17:36;;;;;;;4.37;2.80;;;2.00;99.90;;;;;;5993319;23;20379;-71
2023/03/12 06:20:01;;;;;;;7.30;3.33;;;1.90;99.90;;;;;;5995184;23;20472;-71
2023/03/12 06:22:28;;;;;;;9.60;3.10;;;2.00;99.90;;;;;;5997282;23;20221;-72
2023/03/12 06:24:54;;;;;;;4.03;2.47;;;2.00;99.90;;;;;;6021250;23;20419;-72
2023/03/12 06:27:21;;;;;;;6.60;3.13;;;2.10;99.90;;;;;;5993323;23;20470;-71
2023/03/12 06:29:46;;;;;;;4.10;2.90;;;2.10;99.90;;;;;;5994758;23;20167;-71
2023/03/12 06:32:13;;;;;;;8.53;2.87;;;2.10;99.90;;;;;;5995191;23;20382;-71
2023/03/12 06:34:38;;;;;;;5.63;2.80;;;2.10;99.90;;;;;;6019780;23;20143;-72
2023/03/12 06:37:04;;;;;;;4.17;2.80;;;2.20;99.90;;;;;;6021143;23;20477;-71
2023/03/12 06:39:29;;;;;;;3.93;2.60;;;2.30;99.90;;;;;;5999327;23;20178;-71
2023/03/12 06:41:55;;;;;;;5.97;2.73;;;2.40;99.90;;;;;;5999035;23;20195;-73
2023/03/12 06:44:21;;;;;;;5.23;2.60;;;2.40;99.90;;;;;;6020927;23;20139;-74
2023/03/12 06:46:47;;;;;;;6.90;3.20;;;2.50;99.90;;;;;;6023238;23;20364;-72
2023/03/12 06:49:13;;;;;;;5.97;2.73;;;2.50;99.90;;;;;;6023121;23;20146;-73
2023/03/12 06:51:39;;;;;;;7.80;2.87;;;2.60;99.90;;;;;;6023685;23;20225;-73
2023/03/12 06:54:05;;;;;;;6.83;2.13;;;2.60;99.90;;;;;;6024238;23;20376;-73
2023/03/12 06:56:30;;;;;;;5.73;2.70;;;2.60;99.90;;;;;;6023195;23;20146;-72
2023/03/12 06:58:56;;;;;;;5.53;2.60;;;2.60;99.90;;;;;;6022604;23;20131;-72
2023/03/12 07:01:23;;;;;;;5.27;2.70;;;2.60;99.90;;;;;;5999258;23;20182;-72
2023/03/12 07:03:48;;;;;;;13.90;3.40;;;2.70;99.90;;;;;;6021284;23;20723;-71
2023/03/12 07:06:20;;;;;;;6.23;3.20;;;2.70;99.90;;;;;;6024234;23;20155;-74
2023/03/12 07:08:46;;;;;;;3.70;2.93;;;2.70;99.90;;;;;;6024710;23;20139;-71
2023/03/12 07:11:12;;;;;;;7.10;2.83;;;2.80;99.90;;;;;;6026090;23;20455;-72
2023/03/12 07:13:41;;;;;;;4.40;2.70;;;2.80;99.90;;;;;;6025198;23;20454;-73
2023/03/12 07:16:07;;;;;;;3.63;2.60;;;2.90;99.90;;;;;;6003190;23;20367;-73
2023/03/12 07:18:33;;;;;;;4.17;2.73;;;2.80;99.90;;;;;;6027793;23;20399;-75
2023/03/12 07:20:58;;;;;;;5.87;2.20;;;2.90;99.90;;;;;;6025643;23;20418;-71
2023/03/12 07:23:24;;;;;;;7.00;2.37;;;2.90;99.90;;;;;;6021205;23;20178;-71
2023/03/12 07:25:51;;;;;;;5.43;2.53;;;2.90;99.90;;;;;;6022356;23;20238;-72
2023/03/12 07:28:17;;;;;;;4.70;3.30;;;2.90;99.90;;;;;;6024462;23;20367;-70
2023/03/12 07:30:49;;;;;;;6.90;2.57;;;3.00;99.90;;;;;;6024739;23;20426;-73
2023/03/12 07:33:17;;;;;;;4.03;2.43;;;2.90;99.90;;;;;;5998288;23;20415;-73
2023/03/12 07:35:44;;;;;;;11.30;2.70;;;2.90;99.90;;;;;;6022796;23;20368;-72
2023/03/12 07:38:10;;;;;;;6.27;3.00;;;3.00;99.90;;;;;;5999721;23;20455;-72
2023/03/12 07:40:35;;;;;;;6.47;2.17;;;3.10;99.90;;;;;;6025339;23;20537;-73
2023/03/12 07:43:01;;;;;;;5.00;2.87;;;3.10;99.90;;;;;;6025344;23;20364;-72
2023/03/12 07:45:31;;;;;;;3.40;2.40;;;3.20;99.90;;;;;;6024201;23;20155;-73
2023/03/12 07:47:57;;;;;;;3.07;2.73;;;3.20;99.90;;;;;;6000189;23;20414;-74
2023/03/12 07:50:22;;;;;;;4.70;2.60;;;3.20;99.90;;;;;;6026958;23;20213;-73
2023/03/12 07:52:48;;;;;;;3.40;2.63;;;3.30;99.90;;;;;;6001244;23;20146;-72
2023/03/12 07:55:14;;;;;;;7.53;2.87;;;3.30;99.90;;;;;;6023479;23;20139;-73
2023/03/12 07:57:39;;;;;;;4.20;2.83;;;3.50;99.90;;;;;;6024438;23;20150;-73
2023/03/12 08:00:09;;;;;;;4.47;2.10;;;3.60;99.90;;;;;;6023683;23;20187;-74
2023/03/12 08:02:37;;;;;;;4.30;2.70;;;3.50;99.90;;;;;;6023247;23;20139;-74
2023/03/12 08:05:03;;;;;;;6.20;2.93;;;3.60;99.90;;;;;;6000654;23;20372;-73
2023/03/12 08:07:31;;;;;;;4.80;3.07;;;3.80;99.90;;;;;;5999428;23;20163;-73
2023/03/12 08:09:58;;;;;;;4.93;2.70;;;3.80;99.90;;;;;;6023079;23;20478;-72
2023/03/12 08:12:24;;;;;;;4.30;3.27;;;3.80;99.90;;;;;;6022715;23;20400;-72
2023/03/12 08:14:51;;;;;;;5.30;3.10;;;3.70;99.90;;;;;;5999342;23;20438;-72
2023/03/12 08:17:17;;;;;;;4.70;2.27;;;3.80;99.90;;;;;;6027376;23;20139;-73
2023/03/12 08:19:42;;;;;;;6.10;2.67;;;3.80;99.90;;;;;;6000547;23;20466;-72
2023/03/12 08:22:08;;;;;;;3.00;2.23;;;3.80;99.90;;;;;;6000354;23;20379;-73
2023/03/12 08:24:34;;;;;;;4.53;2.87;;;3.80;99.90;;;;;;6028458;23;20411;-74
2023/03/12 08:27:00;;;;;;;6.27;3.10;;;3.80;99.90;;;;;;6024714;23;20195;-73
2023/03/12 08:29:26;;;;;;;9.10;3.67;;;3.90;99.90;;;;;;6024507;23;20430;-74
2023/03/12 08:31:52;;;;;;;10.37;3.37;;;4.00;99.90;;;;;;6022128;23;20146;-73
2023/03/12 08:34:18;;;;;;;10.10;3.30;;;4.00;99.90;;;;;;6022369;23;20360;-74
2023/03/12 08:36:43;;;;;;;4.87;3.60;;;4.10;99.90;;;;;;5936373;24;20566;-75
2023/03/12 08:39:09;;;;;;;4.10;2.80;;;4.20;99.90;;;;;;5915477;24;20235;-73
2023/03/12 08:41:35;;;;;;;6.07;3.00;;;4.20;99.90;;;;;;5939833;24;20156;-75
2023/03/12 08:44:00;;;;;;;6.40;3.17;;;4.20;99.90;;;;;;5938432;24;20148;-73
2023/03/12 08:46:26;;;;;;;5.03;3.17;;;4.20;99.90;;;;;;5938139;24;20598;-73
2023/03/12 08:48:51;;;;;;;7.57;3.03;;;4.20;99.90;;;;;;5912963;24;20215;-75
2023/03/12 08:51:17;;;;;;;9.63;3.77;;;4.30;99.90;;;;;;5937600;24;20195;-74
2023/03/12 08:53:44;;;;;;;4.23;3.33;;;4.30;99.90;;;;;;5912646;24;20560;-74
2023/03/12 08:56:10;;;;;;;5.60;3.80;;;4.40;99.90;;;;;;5939598;24;20450;-72
2023/03/12 08:58:35;;;;;;;5.43;3.30;;;4.40;99.90;;;;;;5939480;24;20362;-73
2023/03/12 09:01:01;;;;;;;7.40;3.80;;;4.40;99.90;;;;;;5937401;24;20188;-75
2023/03/12 09:03:26;;;;;;;4.57;3.30;;;4.50;99.90;;;;;;5936905;24;20511;-73
2023/03/12 09:06:11;;;;;;;6.70;4.30;;;4.50;99.90;;;;;;5916845;24;20148;-73
2023/03/12 09:08:38;;;;;;;7.43;4.00;;;4.70;99.90;;;;;;6012875;23;20238;-73
2023/03/12 09:11:04;;;;;;;8.13;3.87;;;4.70;99.90;;;;;;5999791;23;20412;-74
2023/03/12 09:13:31;;;;;;;10.00;4.73;;;4.60;99.90;;;;;;5999495;23;20375;-75
2023/03/12 09:16:01;;;;;;;8.27;5.10;;;4.60;99.90;;;;;;6026086;23;20360;-74
2023/03/12 09:18:27;;;;;;;6.07;4.20;;;4.60;99.90;;;;;;6029590;23;20387;-74
2023/03/12 09:20:53;;;;;;;8.13;4.27;;;4.60;99.90;;;;;;6026674;23;20780;-74
2023/03/12 09:23:19;;;;;;;5.47;4.40;;;4.60;99.90;;;;;;6003377;23;20844;-73
2023/03/12 09:25:46;;;;;;;7.73;4.50;;;4.60;99.90;;;;;;6034382;23;20363;-75
2023/03/12 09:28:13;;;;;;;4.33;3.63;;;4.60;99.90;;;;;;5980763;23;20162;-75
2023/03/12 09:30:39;;;;;;;6.47;3.97;;;4.70;99.90;;;;;;6002882;23;20418;-75
2023/03/12 09:33:05;;;;;;;10.60;4.50;;;4.60;99.90;;;;;;5979697;23;20379;-74
2023/03/12 09:35:32;;;;;;;6.10;4.77;;;4.70;99.90;;;;;;6029041;23;20400;-74
2023/03/12 09:37:58;;;;;;;7.50;5.33;;;4.70;99.90;;;;;;6032137;23;20376;-74
2023/03/12 09:40:28;;;;;;;6.00;5.30;;;4.70;99.90;;;;;;6007822;23;20427;-73
2023/03/12 09:43:19;;;;;;;5.70;5.00;;;4.70;99.90;;;;;;6032414;23;20682;-76
2023/03/12 09:45:47;;;;;;;6.03;4.70;;;4.70;99.90;;;;;;6008805;23;20401;-74
2023/03/12 09:48:21;;;;;;;5.00;3.73;;;4.70;99.90;;;;;;6030246;23;20368;-76
2023/03/12 09:50:50;;;;;;;4.63;4.07;;;4.70;99.90;;;;;;5950673;24;20421;-75
2023/03/12 09:53:37;;;;;;;7.73;3.60;;;4.70;99.90;;;;;;5948367;24;20377;-75
2023/03/12 09:56:08;;;;;;;8.20;5.70;;;4.80;99.90;;;;;;5969051;24;20373;-73
2023/03/12 09:58:37;;;;;;;8.00;6.57;;;5.00;99.90;;;;;;5966668;24;20377;-73
2023/03/12 10:01:31;;;;;;;5.33;4.50;;;5.00;99.90;;;;;;5966421;24;20503;-73
2023/03/12 10:04:27;;;;;;;6.80;5.57;;;5.10;99.90;;;;;;5970648;24;20434;-72
2023/03/12 10:07:17;;;;;;;11.40;6.23;;;5.10;99.90;;;;;;5967974;24;20420;-72
2023/03/12 10:09:50;;;;;;;9.73;5.07;;;5.10;99.90;;;;;;5943724;24;20405;-72
2023/03/12 10:12:44;;;;;;;10.53;6.00;;;5.20;99.90;;;;;;5943549;24;20896;-72
2023/03/12 10:15:57;;;;;;;8.47;5.30;;;5.20;99.90;;;;;;5947112;24;20381;-73
2023/03/12 10:19:08;;;;;;;5.77;4.50;;;5.40;99.90;;;;;;5927522;24;20420;-74
2023/03/12 10:21:36;;;;;;;7.30;6.40;;;5.50;99.90;;;;;;5859809;24;20444;-74
2023/03/12 10:24:44;;;;;;;6.80;5.53;;;5.40;99.90;;;;;;5862393;24;20434;-75
2023/03/12 10:27:15;;;;;;;5.77;5.27;;;5.40;99.90;;;;;;5807212;24;20504;-74
2023/03/12 10:29:46;;;;;;;5.73;5.00;;;5.30;99.90;;;;;;5810177;24;20418;-74
2023/03/12 10:32:47;;;;;;;5.10;3.90;;;5.30;99.90;;;;;;5812424;24;20382;-72
2023/03/12 10:35:19;;;;;;;6.70;5.77;;;5.30;99.90;;;;;;5802798;24;20528;-73
2023/03/12 10:37:53;;;;;;;7.27;6.40;;;5.30;99.90;;;;;;5785686;24;20752;-72
2023/03/12 10:40:25;;;;;;;6.00;4.83;;;5.40;99.90;;;;;;5810508;24;20440;-74
2023/03/12 10:42:51;;;;;;;7.30;5.57;;;5.30;99.90;;;;;;5811008;24;20397;-74
2023/03/12 10:45:33;;;;;;;8.90;7.20;;;5.40;99.90;;;;;;5832427;24;20439;-74
2023/03/12 10:48:10;;;;;;;8.03;7.10;;;5.50;99.90;;;;;;5831872;24;20682;-73
2023/03/12 10:50:40;;;;;;;9.47;7.57;;;5.50;99.90;;;;;;5811421;24;20456;-74
2023/03/12 10:53:21;;;;;;;9.17;6.40;;;5.60;99.90;;;;;;5834492;24;20374;-74
2023/03/12 10:56:10;;;;;;;5.40;4.77;;;5.70;99.90;;;;;;5877986;24;20396;-73
2023/03/12 10:58:44;;;;;;;8.37;6.33;;;5.80;99.90;;;;;;5940482;24;20366;-73
2023/03/12 11:01:24;;;;;;;8.20;6.77;;;5.90;99.90;;;;;;5919359;24;20434;-75
2023/03/12 11:03:52;;;;;;;9.27;5.97;;;6.00;99.90;;;;;;5962188;23;20459;-74
2023/03/12 11:06:24;;;;;;;6.07;5.47;;;6.00;99.90;;;;;;6029392;23;20366;-73
2023/03/12 11:09:08;;;;;;;6.77;5.83;;;6.10;99.90;;;;;;6032501;23;20399;-73
2023/03/12 11:11:35;;;;;;;7.00;5.67;;;6.10;99.90;;;;;;6002179;23;20383;-77
2023/03/12 11:14:14;;;;;;;7.50;5.50;;;6.20;99.90;;;;;;6005196;23;20368;-73
2023/03/12 11:16:40;;;;;;;6.93;5.13;;;6.30;99.90;;;;;;6027142;23;20439;-73
2023/03/12 11:19:06;;;;;;;9.43;7.27;;;6.40;99.90;;;;;;6022824;23;20399;-74
2023/03/12 11:21:35;;;;;;;5.17;4.70;;;6.50;99.90;;;;;;6024870;23;20166;-73
2023/03/12 11:24:13;;;;;;;4.50;4.10;;;6.60;99.90;;;;;;6002112;23;20142;-73
2023/03/12 11:26:48;;;;;;;6.67;6.07;;;6.70;99.90;;;;;;6024998;23;20355;-74
2023/03/12 11:29:23;;;;;;;5.37;4.87;;;6.80;99.90;;;;;;6027562;23;20367;-75
2023/03/12 11:32:01;;;;;;;5.40;4.30;;;6.90;99.90;;;;;;5998624;23;20398;-74
2023/03/12 11:34:33;;;;;;;10.90;8.43;;;7.00;99.90;;;;;;5999090;23;20835;-74
2023/03/12 11:37:26;;;;;;;9.23;7.63;;;7.20;99.90;;;;;;6024552;23;20367;-73
2023/03/12 11:40:08;;;;;;;11.90;8.20;;;7.50;99.90;;;;;;6024144;23;20858;-76
2023/03/12 11:42:53;;;;;;;17.40;8.60;;;7.80;99.90;;;;;;5999460;23;20379;-74
2023/03/12 11:45:56;;;;;;;11.10;6.27;;;8.10;99.90;;;;;;6026839;23;20359;-73
2023/03/12 11:48:24;;;;;;;7.10;6.13;;;8.50;99.90;;;;;;6025567;23;20407;-74
2023/03/12 11:50:58;;;;;;;8.93;6.10;;;8.90;99.90;;;;;;5995180;23;20431;-74
2023/03/12 11:53:30;;;;;;;11.93;7.30;;;9.10;99.90;;;;;;5995843;24;20363;-72
2023/03/12 11:56:20;;;;;;;7.67;5.30;;;9.40;99.90;;;;;;5998516;24;20372;-74
2023/03/12 11:59:05;;;;;;;14.13;7.13;;;9.70;99.90;;;;;;5997338;24;20368;-75
2023/03/12 12:02:09;;;;;;;12.87;7.10;;;9.90;99.90;;;;;;5998520;24;20400;-74
2023/03/12 12:05:03;;;;;;;18.70;6.43;;;10.10;99.90;;;;;;5973850;24;20666;-73
2023/03/12 12:08:03;;;;;;;12.13;5.33;;;10.30;99.90;;;;;;6024118;23;20432;-74
2023/03/12 12:10:38;;;;;;;9.13;5.60;;;10.30;99.90;;;;;;6020526;23;20408;-73
2023/03/12 12:13:30;;;;;;;10.37;5.57;;;10.40;99.90;;;;;;6000091;24;20368;-75
2023/03/12 12:16:25;;;;;;;12.80;6.33;;;10.50;99.90;;;;;;5976244;24;20392;-74
2023/03/12 12:19:11;;;;;;;12.47;6.10;;;10.70;99.90;;;;;;5997619;24;20400;-73
2023/03/12 12:22:07;;;;;;;15.10;6.80;;;10.60;99.90;;;;;;6023920;23;20695;-73
2023/03/12 12:25:02;;;;;;;11.73;5.67;;;10.80;99.90;;;;;;6002123;24;20371;-74
2023/03/12 12:27:30;;;;;;;8.77;4.73;;;10.80;99.90;;;;;;6001164;24;20375;-75
2023/03/12 12:30:41;;;;;;;12.17;5.27;;;11.10;99.90;;;;;;5977167;24;20407;-71
2023/03/12 12:33:16;;;;;;;10.43;5.50;;;11.60;99.90;;;;;;6001834;24;20364;-74
2023/03/12 12:35:42;;;;;;;8.10;4.00;;;11.50;99.90;;;;;;5998409;24;20403;-75
2023/03/12 12:38:33;;;;;;;15.00;5.43;;;11.70;99.90;;;;;;5996179;24;20496;-73
2023/03/12 12:41:05;;;;;;;11.07;5.03;;;11.90;99.90;;;;;;5999294;23;20430;-76
2023/03/12 12:43:38;;;;;;;10.23;4.80;;;11.90;99.90;;;;;;6001655;24;20428;-76
2023/03/12 12:46:13;;;;;;;13.80;5.20;;;12.20;99.90;;;;;;6001124;24;20444;-75
2023/03/12 12:48:56;;;;;;;14.07;4.80;;;12.40;99.90;;;;;;5999981;24;20463;-75
2023/03/12 12:51:29;;;;;;;10.50;4.40;;;12.40;99.90;;;;;;6019671;23;20447;-73
2023/03/12 12:54:04;;;;;;;13.63;5.10;;;12.20;99.90;;;;;;6028024;23;20372;-75
2023/03/12 12:56:55;;;;;;;11.67;4.90;;;12.40;99.90;;;;;;6028540;23;20380;-76
2023/03/12 12:59:32;;;;;;;20.73;5.00;;;12.20;99.90;;;;;;6003456;23;20427;-74
2023/03/12 13:02:01;;;;;;;10.90;4.27;;;12.00;99.90;;;;;;6004953;23;20389;-76
2023/03/12 13:04:43;;;;;;;10.40;4.40;;;12.10;99.90;;;;;;6006119;23;20439;-76
2023/03/12 13:07:12;;;;;;;11.50;3.80;;;12.20;99.90;;;;;;6022318;23;20668;-75
2023/03/12 13:09:46;;;;;;;8.23;3.50;;;12.40;99.90;;;;;;6030295;23;20395;-75
2023/03/12 13:12:17;;;;;;;9.30;3.63;;;12.50;99.90;;;;;;6004276;23;20363;-75
2023/03/12 13:14:44;;;;;;;7.20;3.37;;;12.60;99.90;;;;;;6029694;23;20418;-75